METAR AND TAF INFORMATION
METAR FOR MMMX
ADDS - METARS form results

(1948 UTC 26 April 2018)
Data provider http://aviationweather.gov/adds/metars/
 
METAR text: MMMX 261942Z 22013KT 4SM -RA BKN020CB OVC080 22/08 A3025 NOSIG RMK 8/36/ HZY RAB40
Conditions at: MMMX (MEXICO CITY/LICE, MX) observed 1942 UTC 26 April 2018
Temperature: 22.0°C (72°F)
Dewpoint: 8.0°C (46°F) [RH = 41%]
Pressure (altimeter): 30.25 inches Hg (1024.5 mb)
Winds: from the SW (220 degrees) at 15 MPH (13 knots; 6.8 m/s)
Visibility: 4 miles (6 km)
Ceiling: 2000 feet AGL
Clouds: broken clouds at 2000 feet AGL
overcast cloud deck at 8000 feet AGL
Weather: -RA  (light rain)

METAR text: MMMX 261931Z 25019KT 4SM VCRA BKN020CB OVC080 23/05 A3025 NOSIG RMK 8/36/ HZY PCPN S BINOVC OCNL DROPS
Conditions at: MMMX (MEXICO CITY/LICE, MX) observed 1931 UTC 26 April 2018
Temperature: 23.0°C (73°F)
Dewpoint: 5.0°C (41°F) [RH = 31%]
Pressure (altimeter): 30.25 inches Hg (1024.5 mb)
Winds: from the WSW (250 degrees) at 22 MPH (19 knots; 9.9 m/s)
Visibility: 4 miles (6 km)
Ceiling: 2000 feet AGL
Clouds: broken clouds at 2000 feet AGL
overcast cloud deck at 8000 feet AGL
Weather: VCRA  ( could not decipher "VCRA")

METAR text: MMMX 261852Z 01009KT 4SM SCT025 24/08 A3026 NOSIG RMK 8/200 HZY
Conditions at: MMMX (MEXICO CITY/LICE, MX) observed 1852 UTC 26 April 2018
Temperature: 24.0°C (75°F)
Dewpoint: 8.0°C (46°F) [RH = 36%]
Pressure (altimeter): 30.26 inches Hg (1024.8 mb)
Winds: from the N (10 degrees) at 10 MPH (9 knots; 4.7 m/s)
Visibility: 4 miles (6 km)
Ceiling: at least 12,000 feet AGL
Clouds: scattered clouds at 2500 feet AGL
Weather: no significant weather observed at this time

Forecast for: MMMX (MEXICO CITY/LICE, MX)
Text: TAF MMMX 261645Z 2618/2724 00000KT 5SM HZ SCT025 TX25/2620Z TN13/2712Z
Forecast period: 1800 to 2100 UTC 26 April 2018
Forecast type: FROM: standard forecast or significant change
Winds: calm
Visibility: 5 miles (8 km)
Clouds: scattered clouds at 2500 feet AGL
Weather: HZ  (haze)
Forecast for: MMMX (MEXICO CITY/LICE, MX)
Text: TAF MMMX 261645Z 2618/2724 00000KT 5SM HZ SCT025 TX25/2620Z TN13/2712Z
Forecast period: 1800 to 2100 UTC 26 April 2018
Forecast type: FROM: standard forecast or significant change
Winds: calm
Visibility: 5 miles (8 km)
Clouds: scattered clouds at 2500 feet AGL
Weather: HZ  (haze)
Forecast for: MMMX (MEXICO CITY/LICE, MX)
Text: TAF MMMX 261645Z 2618/2724 00000KT 5SM HZ SCT025 TX25/2620Z TN13/2712Z
Forecast period: 2100 UTC 26 April 2018 to 0200 UTC 27 April 2018
Forecast type: FROM: standard forecast or significant change
Winds: from the W (270 degrees) at 12 MPH (10 knots; 5.2 m/s)
gusting to 23 MPH (20 knots; 10.4 m/s)
Visibility: 6 or more miles (10+ km)
Ceiling: 3000 feet AGL
Clouds: broken clouds at 3000 feet AGL
Weather: no significant weather forecast for this period
Forecast for: MMMX (MEXICO CITY/LICE, MX)
Text: TAF MMMX 261645Z 2618/2724 00000KT 5SM HZ SCT025 TX25/2620Z TN13/2712Z
Forecast period: 2100 UTC 26 April 2018 to 0200 UTC 27 April 2018
Forecast type: FROM: standard forecast or significant change
Winds: from the W (270 degrees) at 12 MPH (10 knots; 5.2 m/s)
gusting to 23 MPH (20 knots; 10.4 m/s)
Visibility: 6 or more miles (10+ km)
Ceiling: 3000 feet AGL
Clouds: broken clouds at 3000 feet AGL
Weather: no significant weather forecast for this period
Forecast for: MMMX (MEXICO CITY/LICE, MX)
Text: TAF MMMX 261645Z 2618/2724 00000KT 5SM HZ SCT025 TX25/2620Z TN13/2712Z
Forecast period: 2300 UTC 26 April 2018 to 0100 UTC 27 April 2018
Forecast type: PROBABLE: 40 percent likelihood of the following during this time
Visibility: 6 miles (10 km)
Clouds: scattered clouds at 2500 feet AGL
Weather: VC RA  (vicinity, rain)
Forecast for: MMMX (MEXICO CITY/LICE, MX)
Text: TAF MMMX 261645Z 2618/2724 00000KT 5SM HZ SCT025 TX25/2620Z TN13/2712Z
Forecast period: 2300 UTC 26 April 2018 to 0100 UTC 27 April 2018
Forecast type: PROBABLE: 40 percent likelihood of the following during this time
Visibility: 6 miles (10 km)
Clouds: scattered clouds at 2500 feet AGL
Weather: VC RA  (vicinity, rain)
Forecast for: MMMX (MEXICO CITY/LICE, MX)
Text: TAF MMMX 261645Z 2618/2724 00000KT 5SM HZ SCT025 TX25/2620Z TN13/2712Z
Forecast period: 0200 to 1300 UTC 27 April 2018
Forecast type: FROM: standard forecast or significant change
Winds: from the NE (40 degrees) at 6 MPH (5 knots; 2.6 m/s)
Visibility: 6 or more miles (10+ km)
Clouds: scattered clouds at 8000 feet AGL
Weather: no significant weather forecast for this period
Forecast for: MMMX (MEXICO CITY/LICE, MX)
Text: TAF MMMX 261645Z 2618/2724 00000KT 5SM HZ SCT025 TX25/2620Z TN13/2712Z
Forecast period: 0200 to 1300 UTC 27 April 2018
Forecast type: FROM: standard forecast or significant change
Winds: from the NE (40 degrees) at 6 MPH (5 knots; 2.6 m/s)
Visibility: 6 or more miles (10+ km)
Clouds: scattered clouds at 8000 feet AGL
Weather: no significant weather forecast for this period
Forecast for: MMMX (MEXICO CITY/LICE, MX)
Text: TAF MMMX 261645Z 2618/2724 00000KT 5SM HZ SCT025 TX25/2620Z TN13/2712Z
Forecast period: 1300 to 2000 UTC 27 April 2018
Forecast type: FROM: standard forecast or significant change
Winds: calm
Visibility: 3 miles (5 km)
Clouds: clear skies
Weather: HZ  (haze)
Forecast for: MMMX (MEXICO CITY/LICE, MX)
Text: TAF MMMX 261645Z 2618/2724 00000KT 5SM HZ SCT025 TX25/2620Z TN13/2712Z
Forecast period: 1300 to 2000 UTC 27 April 2018
Forecast type: FROM: standard forecast or significant change
Winds: calm
Visibility: 3 miles (5 km)
Clouds: clear skies
Weather: HZ  (haze)
Forecast for: MMMX (MEXICO CITY/LICE, MX)
Text: TAF MMMX 261645Z 2618/2724 00000KT 5SM HZ SCT025 TX25/2620Z TN13/2712Z
Forecast period: 2000 UTC 27 April 2018 to 0000 UTC 28 April 2018
Forecast type: FROM: standard forecast or significant change
Winds: from the NE (40 degrees) at 12 MPH (10 knots; 5.2 m/s)
Visibility: 6 or more miles (10+ km)
Ceiling: 2500 feet AGL
Clouds: broken clouds at 2500 feet AGL
Weather: no significant weather forecast for this period
Forecast for: MMMX (MEXICO CITY/LICE, MX)
Text: TAF MMMX 261645Z 2618/2724 00000KT 5SM HZ SCT025 TX25/2620Z TN13/2712Z
Forecast period: 2000 UTC 27 April 2018 to 0000 UTC 28 April 2018
Forecast type: FROM: standard forecast or significant change
Winds: from the NE (40 degrees) at 12 MPH (10 knots; 5.2 m/s)
Visibility: 6 or more miles (10+ km)
Ceiling: 2500 feet AGL
Clouds: broken clouds at 2500 feet AGL
Weather: no significant weather forecast for this period
Forecast for: MMMX (MEXICO CITY/LICE, MX)
Text: TAF MMMX 261645Z 2618/2724 00000KT 5SM HZ SCT025 TX25/2620Z TN13/2712Z
Forecast period: 2100 UTC 27 April 2018 to 0000 UTC 28 April 2018
Forecast type: TEMPORARY: The following changes expected for less than half the time period
Visibility: 5 miles (8 km)
Ceiling: 2000 feet AGL
Clouds: broken clouds at 2000 feet AGL
Weather: TSRA  (rain associated with thunderstorm(s))
Forecast for: MMMX (MEXICO CITY/LICE, MX)
Text: TAF MMMX 261645Z 2618/2724 00000KT 5SM HZ SCT025 TX25/2620Z TN13/2712Z
Forecast period: 2100 UTC 27 April 2018 to 0000 UTC 28 April 2018
Forecast type: TEMPORARY: The following changes expected for less than half the time period
Visibility: 5 miles (8 km)
Ceiling: 2000 feet AGL
Clouds: broken clouds at 2000 feet AGL
Weather: TSRA  (rain associated with thunderstorm(s))

 AIRPORT MAP

 RUNWAY INFORMATION
Runway 05L Runway length 12966 ft Runway width 148 ft
Runway elevation 7309 ft Runway displaced threshold 1034 ft Runway heading 59
Runway 23R Runway length 12966 ft Runway width 148 ft
Runway elevation 7311 ft Runway displaced threshold 1641 ft Runway heading 239
Runway 05R Runway length 12795 ft Runway width 148 ft
Runway elevation 7316 ft Runway displaced threshold 1493 ft Runway heading 59
Runway 23L Runway length 12795 ft Runway width 148 ft
Runway elevation 7295 ft Runway displaced threshold 0 ft Runway heading 239

 AIRPORT FREQUENCIES
Type APP Name MEXICO APP Frequency 121.2 MHZ
Type ARR Name MEXICO ARR Frequency 129.6 MHZ
Type ATIS Name ATIS Frequency 127.65 MHZ
Type CLD Name MEXICO CLN Frequency 122.1 MHZ
Type DEP Name MEXICO DEP Frequency 120.5 MHZ
Type GND Name GND Frequency 121 MHZ
Type RDO Name MEXICO INF Frequency 126.9 MHZ
Type TWR Name MEXICO TWR Frequency 118.55 MHZ

 AIRPORT NEAR NAVIGATION AIDS
Type VOR-DME Name Mexico Frequency 115600 KHZ
Type NDB Name Plaza Frequency 370 KHZ
Type NDB Name Tepexpan Frequency 359 KHZ



v2.6.1